Time;durP1;ratioP1;P1;durP2;ratioP2;P2;SDS_P1;SDS_P2;PMS_P1;PMS_P2;Temp;Humidity;BMP_temperature;BMP_pressure;BME280_temperature;BME280_humidity;BME280_pressure;Samples;Min_cycle;Max_cycle;Signal;HPM_P1;HPM_P2
2022/07/07 00:01:15;0.00;0.00;0.62;0.00;0.00;0.62;4.00;1.80;;;24.00;33.10;;;;;;2259627;61;20399;-58
2022/07/07 00:04:02;0.00;0.00;0.62;0.00;0.00;0.62;3.30;1.47;;;24.00;33.40;;;;;;2261850;61;20368;-55
2022/07/07 00:06:47;0.00;0.00;0.62;0.00;0.00;0.62;2.00;1.60;;;24.00;33.50;;;;;;2263432;61;20485;-54
2022/07/07 00:09:32;0.00;0.00;0.62;0.00;0.00;0.62;3.27;1.70;;;23.90;33.60;;;;;;2263749;61;20411;-52
2022/07/07 00:12:17;0.00;0.00;0.62;0.00;0.00;0.62;3.53;1.97;;;23.90;33.90;;;;;;2263232;61;20360;-52
2022/07/07 00:15:01;0.00;0.00;0.62;0.00;0.00;0.62;1.80;1.33;;;23.90;33.90;;;;;;2263862;61;20376;-52
2022/07/07 00:17:46;0.00;0.00;0.62;0.00;0.00;0.62;3.53;1.90;;;23.90;33.90;;;;;;2263273;61;20465;-54
2022/07/07 00:20:32;0.00;0.00;0.62;0.00;0.00;0.62;4.37;2.27;;;23.80;33.90;;;;;;2264092;61;20401;-55
2022/07/07 00:23:18;0.00;0.00;0.62;0.00;0.00;0.62;4.63;2.07;;;23.80;34.10;;;;;;2263843;61;20356;-53
2022/07/07 00:26:03;0.00;0.00;0.62;0.00;0.00;0.62;3.70;2.57;;;23.80;34.10;;;;;;2263195;61;20399;-52
2022/07/07 00:28:49;0.00;0.00;0.62;0.00;0.00;0.62;4.07;2.60;;;23.80;34.30;;;;;;2264097;61;20363;-54
2022/07/07 00:31:34;0.00;0.00;0.62;0.00;0.00;0.62;3.47;2.57;;;23.70;34.30;;;;;;2263765;61;20818;-56
2022/07/07 00:34:19;0.00;0.00;0.62;0.00;0.00;0.62;4.00;2.40;;;23.70;34.40;;;;;;2262543;61;20478;-53
2022/07/07 00:37:06;0.00;0.00;0.62;0.00;0.00;0.62;4.90;2.63;;;23.70;34.50;;;;;;2262887;61;20376;-55
2022/07/07 00:39:50;0.00;0.00;0.62;0.00;0.00;0.62;4.37;2.63;;;23.70;34.60;;;;;;2301092;53;20792;-60
2022/07/07 00:42:36;0.00;0.00;0.62;0.00;0.00;0.62;6.47;2.90;;;23.60;34.70;;;;;;2263805;61;20368;-61
2022/07/07 00:45:21;0.00;0.00;0.62;0.00;0.00;0.62;5.70;2.70;;;23.60;34.90;;;;;;2263375;61;20383;-55
2022/07/07 00:48:07;0.00;0.00;0.62;0.00;0.00;0.62;3.40;2.43;;;23.60;35.20;;;;;;2262769;61;21084;-54
2022/07/07 00:50:53;0.00;0.00;0.62;0.00;0.00;0.62;3.87;2.53;;;23.50;35.20;;;;;;2264706;61;20411;-57
2022/07/07 00:53:40;0.00;0.00;0.62;0.00;0.00;0.62;3.93;2.80;;;23.50;35.20;;;;;;2264047;61;20359;-59
2022/07/07 00:56:24;0.00;0.00;0.62;0.00;0.00;0.62;3.57;2.10;;;23.50;35.30;;;;;;2263100;61;20368;-58
2022/07/07 00:59:10;0.00;0.00;0.62;0.00;0.00;0.62;4.90;2.90;;;23.40;35.40;;;;;;2264252;61;20372;-58
2022/07/07 01:01:56;0.00;0.00;0.62;0.00;0.00;0.62;5.87;2.93;;;23.40;35.60;;;;;;2264632;61;20352;-57
2022/07/07 01:04:41;0.00;0.00;0.62;0.00;0.00;0.62;5.03;3.37;;;23.40;35.70;;;;;;2263695;61;20414;-57
2022/07/07 01:07:27;0.00;0.00;0.62;0.00;0.00;0.62;7.83;3.30;;;23.30;35.90;;;;;;2264440;61;20392;-56
2022/07/07 01:10:13;0.00;0.00;0.62;0.00;0.00;0.62;8.27;3.67;;;23.30;36.40;;;;;;2262671;61;20437;-58
2022/07/07 01:13:02;0.00;0.00;0.62;0.00;0.00;0.62;3.40;2.73;;;23.30;36.40;;;;;;2264056;61;20526;-55
2022/07/07 01:15:47;0.00;0.00;0.62;0.00;0.00;0.62;6.10;2.97;;;23.20;36.50;;;;;;2263493;61;20384;-58
2022/07/07 01:18:32;0.00;0.00;0.62;0.00;0.00;0.62;3.97;2.33;;;23.20;36.60;;;;;;2262402;61;20437;-55
2022/07/07 01:21:20;0.00;0.00;0.62;0.00;0.00;0.62;4.73;2.73;;;23.20;36.50;;;;;;2263998;61;20388;-55
2022/07/07 01:24:07;0.00;0.00;0.62;0.00;0.00;0.62;4.63;2.90;;;23.20;36.40;;;;;;2263017;61;20407;-55
2022/07/07 01:27:05;0.00;0.00;0.62;0.00;0.00;0.62;3.97;2.37;;;23.20;36.30;;;;;;2263339;61;20384;-56
2022/07/07 01:29:52;0.00;0.00;0.62;0.00;0.00;0.62;3.27;2.30;;;23.20;36.20;;;;;;2263840;61;20904;-55
2022/07/07 01:32:38;0.00;0.00;0.62;0.00;0.00;0.62;3.90;2.80;;;23.20;36.10;;;;;;2262750;61;20359;-59
2022/07/07 01:35:23;0.00;0.00;0.62;0.00;0.00;0.62;3.53;2.47;;;23.30;36.10;;;;;;2263723;61;20990;-57
2022/07/07 01:38:08;0.00;0.00;0.62;0.00;0.00;0.62;5.23;2.93;;;23.30;36.00;;;;;;2263377;61;20360;-55
2022/07/07 01:40:54;0.00;0.00;0.62;0.00;0.00;0.62;3.30;2.40;;;23.30;36.00;;;;;;2262615;61;20467;-56
2022/07/07 01:43:39;0.00;0.00;0.62;0.00;0.00;0.62;2.40;2.10;;;23.30;35.90;;;;;;2263635;61;20475;-57
2022/07/07 01:46:24;0.00;0.00;0.62;0.00;0.00;0.62;2.90;2.03;;;23.40;36.00;;;;;;2263271;61;20438;-57
2022/07/07 01:49:09;0.00;0.00;0.62;0.00;0.00;0.62;2.57;2.13;;;23.40;36.00;;;;;;2263381;61;20752;-57
2022/07/07 01:51:54;0.00;0.00;0.62;0.00;0.00;0.62;2.87;2.47;;;23.40;35.90;;;;;;2264329;61;20375;-57
2022/07/07 01:54:39;0.00;0.00;0.62;0.00;0.00;0.62;2.73;2.30;;;23.40;36.00;;;;;;2262956;61;20920;-57
2022/07/07 01:57:25;0.00;0.00;0.62;0.00;0.00;0.62;2.70;2.40;;;23.40;36.00;;;;;;2264276;61;20367;-56
2022/07/07 02:00:12;0.00;0.00;0.62;0.00;0.00;0.62;2.20;1.77;;;23.40;36.20;;;;;;2263958;61;20395;-56
2022/07/07 02:02:57;0.00;0.00;0.62;0.00;0.00;0.62;2.70;2.27;;;23.40;36.30;;;;;;2263098;61;20418;-56
2022/07/07 02:05:41;0.00;0.00;0.62;0.00;0.00;0.62;4.67;2.47;;;23.40;36.40;;;;;;2264325;61;20360;-55
2022/07/07 02:08:26;0.00;0.00;0.62;0.00;0.00;0.62;3.00;2.17;;;23.40;36.50;;;;;;2263921;61;20363;-58
2022/07/07 02:11:14;0.00;0.00;0.62;0.00;0.00;0.62;3.40;2.83;;;23.40;36.50;;;;;;2260710;61;20383;-54
2022/07/07 02:14:01;0.00;0.00;0.62;0.00;0.00;0.62;3.30;2.30;;;23.40;36.70;;;;;;2260942;61;20770;-53
2022/07/07 02:16:46;0.00;0.00;0.62;0.00;0.00;0.62;3.00;2.47;;;23.40;36.90;;;;;;2263021;61;20439;-55
2022/07/07 02:19:30;0.00;0.00;0.62;0.00;0.00;0.62;3.30;2.40;;;23.40;36.90;;;;;;2264541;61;20916;-57
2022/07/07 02:22:15;0.00;0.00;0.62;0.00;0.00;0.62;2.57;2.33;;;23.40;37.00;;;;;;2263735;61;20457;-54
2022/07/07 02:25:00;0.00;0.00;0.62;0.00;0.00;0.62;3.40;2.60;;;23.40;37.00;;;;;;2263003;61;20440;-55
2022/07/07 02:27:44;0.00;0.00;0.62;0.00;0.00;0.62;3.57;3.10;;;23.40;36.90;;;;;;2264599;61;20368;-56
2022/07/07 02:30:31;0.00;0.00;0.62;0.00;0.00;0.62;3.30;2.77;;;23.30;37.20;;;;;;2263736;61;20430;-56
2022/07/07 02:33:16;0.00;0.00;0.62;0.00;0.00;0.62;4.57;3.30;;;23.30;37.50;;;;;;2263352;61;20368;-56
2022/07/07 02:36:01;0.00;0.00;0.62;0.00;0.00;0.62;6.23;3.53;;;23.30;37.60;;;;;;2264186;61;20387;-57
2022/07/07 02:38:46;0.00;0.00;0.62;0.00;0.00;0.62;4.63;3.20;;;23.30;37.80;;;;;;2262857;61;21039;-57
2022/07/07 02:41:31;0.00;0.00;0.62;0.00;0.00;0.62;5.60;3.43;;;23.20;38.10;;;;;;2264151;61;20476;-54
2022/07/07 02:44:16;0.00;0.00;0.62;0.00;0.00;0.62;4.43;3.10;;;23.20;38.20;;;;;;2263669;61;20360;-54
2022/07/07 02:47:03;0.00;0.00;0.62;0.00;0.00;0.62;4.57;3.90;;;23.20;38.20;;;;;;2262982;61;20900;-57
2022/07/07 02:49:48;0.00;0.00;0.62;0.00;0.00;0.62;5.63;3.53;;;23.10;38.20;;;;;;2261101;61;20430;-55
2022/07/07 02:52:33;0.00;0.00;0.62;0.00;0.00;0.62;4.23;3.77;;;23.10;38.20;;;;;;2263993;61;20452;-57
2022/07/07 02:55:18;0.00;0.00;0.62;0.00;0.00;0.62;3.90;3.43;;;23.10;38.20;;;;;;2263012;61;20927;-59
2022/07/07 02:58:05;0.00;0.00;0.62;0.00;0.00;0.62;5.70;4.23;;;23.10;38.20;;;;;;2264107;61;20418;-58
2022/07/07 03:00:50;0.00;0.00;0.62;0.00;0.00;0.62;4.60;3.90;;;23.10;38.20;;;;;;2262469;61;20381;-58
2022/07/07 03:03:37;0.00;0.00;0.62;0.00;0.00;0.62;3.77;3.20;;;23.10;38.20;;;;;;2263945;61;20908;-56
2022/07/07 03:06:22;0.00;0.00;0.62;0.00;0.00;0.62;5.40;4.30;;;23.10;38.20;;;;;;2263956;61;20391;-58
2022/07/07 03:09:06;0.00;0.00;0.62;0.00;0.00;0.62;5.43;3.93;;;23.10;38.20;;;;;;2263336;61;20832;-56
2022/07/07 03:11:51;0.00;0.00;0.62;0.00;0.00;0.62;5.10;4.00;;;23.10;38.40;;;;;;2266027;61;20787;-58
2022/07/07 03:14:35;0.00;0.00;0.62;0.00;0.00;0.62;4.70;3.60;;;23.10;38.20;;;;;;2263696;61;20851;-55
2022/07/07 03:17:20;0.00;0.00;0.62;0.00;0.00;0.62;5.50;3.60;;;23.10;38.40;;;;;;2263253;61;20364;-57
2022/07/07 03:20:08;0.00;0.00;0.62;0.00;0.00;0.62;4.67;3.60;;;23.10;38.20;;;;;;2264403;61;20376;-58
2022/07/07 03:22:53;0.00;0.00;0.62;0.00;0.00;0.62;4.60;3.67;;;23.10;38.40;;;;;;2263288;61;20429;-56
2022/07/07 03:25:38;0.00;0.00;0.62;0.00;0.00;0.62;4.10;3.70;;;23.10;38.50;;;;;;2260956;61;20352;-57
2022/07/07 03:28:23;0.00;0.00;0.62;0.00;0.00;0.62;5.20;4.40;;;23.10;38.50;;;;;;2264244;61;20368;-57
2022/07/07 03:31:08;0.00;0.00;0.62;0.00;0.00;0.62;5.50;4.27;;;23.10;38.50;;;;;;2262879;61;20376;-56
2022/07/07 03:33:53;0.00;0.00;0.62;0.00;0.00;0.62;4.50;3.63;;;23.10;38.60;;;;;;2264087;61;20431;-57
2022/07/07 03:36:39;0.00;0.00;0.62;0.00;0.00;0.62;4.00;3.10;;;23.10;38.80;;;;;;2263846;61;20403;-57
2022/07/07 03:39:24;0.00;0.00;0.62;0.00;0.00;0.62;4.77;3.63;;;23.10;38.80;;;;;;2263035;61;20833;-57
2022/07/07 03:42:09;0.00;0.00;0.62;0.00;0.00;0.62;4.10;3.60;;;23.10;38.80;;;;;;2264105;61;20923;-57
2022/07/07 03:44:54;0.00;0.00;0.62;0.00;0.00;0.62;5.27;3.57;;;23.10;38.80;;;;;;2263301;61;20356;-57
2022/07/07 03:47:39;0.00;0.00;0.62;0.00;0.00;0.62;5.03;4.00;;;23.10;38.60;;;;;;2263837;61;20399;-54
2022/07/07 03:50:24;0.00;0.00;0.62;0.00;0.00;0.62;4.53;4.13;;;23.10;38.40;;;;;;2260923;61;20834;-57
2022/07/07 03:53:11;0.00;0.00;0.62;0.00;0.00;0.62;3.60;2.90;;;23.10;38.50;;;;;;2262650;61;20414;-57
2022/07/07 03:55:56;0.00;0.00;0.62;0.00;0.00;0.62;3.73;3.40;;;23.10;38.30;;;;;;2264073;61;20921;-55
2022/07/07 03:58:41;0.00;0.00;0.62;0.00;0.00;0.62;3.30;3.00;;;23.20;38.20;;;;;;2263764;61;20391;-57
2022/07/07 04:01:25;0.00;0.00;0.62;0.00;0.00;0.62;4.07;3.47;;;23.20;38.40;;;;;;2262826;61;20381;-58
2022/07/07 04:04:11;0.00;0.00;0.62;0.00;0.00;0.62;5.77;3.50;;;23.20;38.50;;;;;;2263950;61;20372;-55
2022/07/07 04:06:56;0.00;0.00;0.62;0.00;0.00;0.62;5.77;3.70;;;23.20;38.30;;;;;;2263556;61;20899;-57
2022/07/07 04:09:42;0.00;0.00;0.62;0.00;0.00;0.62;5.60;3.40;;;23.30;38.60;;;;;;2263506;61;20379;-58
2022/07/07 04:12:27;0.00;0.00;0.62;0.00;0.00;0.62;4.40;4.00;;;23.30;38.50;;;;;;2264001;61;20361;-54
2022/07/07 04:15:11;0.00;0.00;0.62;0.00;0.00;0.62;4.40;3.77;;;23.30;38.50;;;;;;2262182;61;20384;-55
2022/07/07 04:17:56;0.00;0.00;0.62;0.00;0.00;0.62;3.93;3.47;;;23.30;38.60;;;;;;2264065;61;20495;-55
2022/07/07 04:20:41;0.00;0.00;0.62;0.00;0.00;0.62;5.70;3.60;;;23.30;38.40;;;;;;2263597;61;20426;-59
2022/07/07 04:23:26;0.00;0.00;0.62;0.00;0.00;0.62;5.97;4.77;;;23.30;38.40;;;;;;2262600;61;20498;-57
2022/07/07 04:26:13;0.00;0.00;0.62;0.00;0.00;0.62;3.90;3.50;;;23.30;38.80;;;;;;2263755;61;20446;-54
2022/07/07 04:28:57;0.00;0.00;0.62;0.00;0.00;0.62;5.13;4.00;;;23.30;38.70;;;;;;2263570;61;20367;-55
2022/07/07 04:31:45;0.00;0.00;0.62;0.00;0.00;0.62;5.97;3.40;;;23.30;39.10;;;;;;2259852;61;20375;-58
2022/07/07 04:34:30;0.00;0.00;0.62;0.00;0.00;0.62;4.50;3.70;;;23.30;39.00;;;;;;2263706;61;20387;-59
2022/07/07 04:37:15;0.00;0.00;0.62;0.00;0.00;0.62;4.30;3.50;;;23.30;39.00;;;;;;2262320;61;20953;-54
2022/07/07 04:40:00;0.00;0.00;0.62;0.00;0.00;0.62;4.67;3.40;;;23.30;39.30;;;;;;2263917;61;20380;-57
2022/07/07 04:42:46;0.00;0.00;0.62;0.00;0.00;0.62;3.13;2.60;;;23.30;39.10;;;;;;2263329;61;20359;-55
2022/07/07 04:45:30;0.00;0.00;0.62;0.00;0.00;0.62;3.83;3.30;;;23.30;39.10;;;;;;2262502;61;20855;-56
2022/07/07 04:48:15;0.00;0.00;0.62;0.00;0.00;0.62;3.17;2.30;;;23.30;39.10;;;;;;2263743;61;20456;-57
2022/07/07 04:51:00;0.00;0.00;0.62;0.00;0.00;0.62;4.50;2.90;;;23.30;39.00;;;;;;2263464;61;20456;-56
2022/07/07 04:53:45;0.00;0.00;0.62;0.00;0.00;0.62;4.37;2.90;;;23.30;39.00;;;;;;2262846;61;20407;-57
2022/07/07 04:56:29;0.00;0.00;0.62;0.00;0.00;0.62;3.77;3.07;;;23.30;39.10;;;;;;2263748;61;20368;-57
2022/07/07 04:59:15;0.00;0.00;0.62;0.00;0.00;0.62;2.23;2.00;;;23.30;39.30;;;;;;2262445;61;20379;-57
2022/07/07 05:02:00;0.00;0.00;0.62;0.00;0.00;0.62;2.90;2.33;;;23.30;39.10;;;;;;2263908;61;20447;-55
2022/07/07 05:04:45;0.00;0.00;0.62;0.00;0.00;0.62;3.23;2.00;;;23.30;39.00;;;;;;2262984;61;20364;-57
2022/07/07 05:07:30;0.00;0.00;0.62;0.00;0.00;0.62;3.00;2.30;;;23.30;39.10;;;;;;2262660;61;20376;-58
2022/07/07 05:10:14;0.00;0.00;0.62;0.00;0.00;0.62;2.40;2.17;;;23.40;39.30;;;;;;2263757;61;20411;-56
2022/07/07 05:12:59;0.00;0.00;0.62;0.00;0.00;0.62;2.00;1.80;;;23.30;39.10;;;;;;2263438;61;20838;-58
2022/07/07 05:15:45;0.00;0.00;0.62;0.00;0.00;0.62;2.00;1.53;;;23.40;39.20;;;;;;2262703;61;20388;-56
2022/07/07 05:18:30;0.00;0.00;0.62;0.00;0.00;0.62;2.10;1.90;;;23.40;39.40;;;;;;2263766;61;20411;-54
2022/07/07 05:21:15;0.00;0.00;0.62;0.00;0.00;0.62;2.93;1.80;;;23.40;39.30;;;;;;2262832;61;20418;-57
2022/07/07 05:24:00;0.00;0.00;0.62;0.00;0.00;0.62;1.80;1.40;;;23.40;39.50;;;;;;2263595;61;20985;-57
2022/07/07 05:26:45;0.00;0.00;0.62;0.00;0.00;0.62;1.80;1.50;;;23.40;39.40;;;;;;2264372;61;20360;-56
2022/07/07 05:29:30;0.00;0.00;0.62;0.00;0.00;0.62;2.30;1.90;;;23.40;39.50;;;;;;2263276;61;20371;-55
2022/07/07 05:32:17;0.00;0.00;0.62;0.00;0.00;0.62;1.70;1.40;;;23.40;39.40;;;;;;2264358;61;20364;-59
2022/07/07 05:35:01;0.00;0.00;0.62;0.00;0.00;0.62;2.33;1.60;;;23.40;39.20;;;;;;2260808;61;20439;-58
2022/07/07 05:37:46;0.00;0.00;0.62;0.00;0.00;0.62;1.83;1.30;;;23.40;39.30;;;;;;2263202;61;20406;-58
2022/07/07 05:40:31;0.00;0.00;0.62;0.00;0.00;0.62;1.70;1.60;;;23.40;39.40;;;;;;2264556;61;20411;-56
2022/07/07 05:43:16;0.00;0.00;0.62;0.00;0.00;0.62;2.70;1.70;;;23.40;39.60;;;;;;2263961;61;20406;-59
2022/07/07 05:46:00;0.00;0.00;0.62;0.00;0.00;0.62;2.10;1.60;;;23.40;40.60;;;;;;2264305;61;20356;-58
2022/07/07 05:48:46;0.00;0.00;0.62;0.00;0.00;0.62;2.27;1.93;;;23.40;39.80;;;;;;2264725;61;20355;-58
2022/07/07 05:51:31;0.00;0.00;0.62;0.00;0.00;0.62;2.10;1.77;;;23.40;39.90;;;;;;2263686;61;20516;-58
2022/07/07 05:54:16;0.00;0.00;0.62;0.00;0.00;0.62;2.30;2.00;;;23.30;39.60;;;;;;2264384;61;20391;-56
2022/07/07 05:57:01;0.00;0.00;0.62;0.00;0.00;0.62;2.43;2.07;;;23.40;40.40;;;;;;2264088;61;20878;-59
2022/07/07 05:59:47;0.00;0.00;0.62;0.00;0.00;0.62;2.30;2.10;;;23.40;39.70;;;;;;2263249;61;20391;-58
2022/07/07 06:02:31;0.00;0.00;0.62;0.00;0.00;0.62;2.27;2.03;;;23.40;39.70;;;;;;2264712;61;20379;-58
2022/07/07 06:05:17;0.00;0.00;0.62;0.00;0.00;0.62;2.77;2.37;;;23.40;39.80;;;;;;2263867;61;20360;-54
2022/07/07 06:08:03;0.00;0.00;0.62;0.00;0.00;0.62;2.50;2.00;;;23.40;40.20;;;;;;2261047;61;20778;-55
2022/07/07 06:10:48;0.00;0.00;0.62;0.00;0.00;0.62;2.27;2.00;;;23.40;40.00;;;;;;2264777;61;20387;-56
2022/07/07 06:13:33;0.00;0.00;0.62;0.00;0.00;0.62;3.00;2.53;;;23.40;40.00;;;;;;2259543;61;20446;-58
2022/07/07 06:16:38;0.00;0.00;0.62;0.00;0.00;0.62;3.33;2.13;;;23.40;40.10;;;;;;2264317;61;20379;-59
2022/07/07 06:19:23;0.00;0.00;0.62;0.00;0.00;0.62;3.40;2.57;;;23.30;40.20;;;;;;2279714;61;20422;-60
2022/07/07 06:22:09;0.00;0.00;0.62;0.00;0.00;0.62;3.47;2.67;;;23.30;40.60;;;;;;2495666;53;20384;-60
2022/07/07 06:24:54;0.00;0.00;0.62;0.00;0.00;0.62;2.73;2.23;;;23.30;40.80;;;;;;2260698;61;20414;-58
2022/07/07 06:27:39;0.00;0.00;0.62;0.00;0.00;0.62;2.83;2.27;;;23.30;41.00;;;;;;2264348;61;20379;-61
2022/07/07 06:30:25;0.00;0.00;0.62;0.00;0.00;0.62;2.67;2.43;;;23.30;41.10;;;;;;2264343;61;20388;-61
2022/07/07 06:33:10;0.00;0.00;0.62;0.00;0.00;0.62;2.37;2.17;;;23.30;40.90;;;;;;2262845;61;20361;-60
2022/07/07 06:35:55;0.00;0.00;0.62;0.00;0.00;0.62;3.23;2.60;;;23.30;40.80;;;;;;2263121;61;20392;-62
2022/07/07 06:38:42;0.00;0.00;0.62;0.00;0.00;0.62;2.90;2.70;;;23.30;40.90;;;;;;2261882;61;20389;-61
2022/07/07 06:41:35;0.00;0.00;0.62;0.00;0.00;0.62;2.40;2.07;;;23.30;41.10;;;;;;2264179;61;20476;-63
2022/07/07 06:44:20;0.00;0.00;0.62;0.00;0.00;0.62;2.70;2.13;;;23.30;41.00;;;;;;2261543;61;20357;-56
2022/07/07 06:47:05;0.00;0.00;0.62;0.00;0.00;0.62;3.07;2.50;;;23.30;41.10;;;;;;2261279;61;20885;-57
2022/07/07 06:49:49;0.00;0.00;0.62;0.00;0.00;0.62;2.83;2.60;;;23.30;41.30;;;;;;2260725;61;20389;-58
2022/07/07 06:52:34;0.00;0.00;0.62;0.00;0.00;0.62;3.30;2.27;;;23.40;41.40;;;;;;2261428;61;20431;-58
2022/07/07 06:55:21;0.00;0.00;0.62;0.00;0.00;0.62;2.53;2.33;;;23.40;41.40;;;;;;2498052;53;20917;-59
2022/07/07 06:58:06;0.00;0.00;0.62;0.00;0.00;0.62;2.20;2.00;;;23.40;41.30;;;;;;2261746;61;20368;-58
2022/07/07 07:00:51;0.00;0.00;0.62;0.00;0.00;0.62;2.10;1.90;;;23.40;41.40;;;;;;2262470;61;20976;-59
2022/07/07 07:03:35;0.00;0.00;0.62;0.00;0.00;0.62;2.10;1.90;;;23.40;41.30;;;;;;2262386;61;20365;-58
2022/07/07 07:06:20;0.00;0.00;0.62;0.00;0.00;0.62;2.97;2.50;;;23.50;41.30;;;;;;2261364;61;20358;-58
2022/07/07 07:09:05;0.00;0.00;0.62;0.00;0.00;0.62;2.17;1.97;;;23.50;41.50;;;;;;2263129;61;20357;-60
2022/07/07 07:11:51;0.00;0.00;0.62;0.00;0.00;0.62;2.60;2.03;;;23.50;41.40;;;;;;2259550;61;20936;-60
2022/07/07 07:14:36;0.00;0.00;0.62;0.00;0.00;0.62;2.80;2.50;;;23.50;41.40;;;;;;2260787;61;21109;-58
2022/07/07 07:17:21;0.00;0.00;0.62;0.00;0.00;0.62;2.40;1.77;;;23.50;41.70;;;;;;2263852;61;20448;-61
2022/07/07 07:20:08;0.00;0.00;0.62;0.00;0.00;0.62;3.57;1.97;;;23.50;41.70;;;;;;2264719;61;20803;-61
2022/07/07 07:22:53;0.00;0.00;0.62;0.00;0.00;0.62;3.87;2.17;;;23.50;41.80;;;;;;2264569;61;20414;-61
2022/07/07 07:25:37;0.00;0.00;0.62;0.00;0.00;0.62;2.17;1.80;;;23.50;41.70;;;;;;2265391;61;20448;-60
2022/07/07 07:28:24;0.00;0.00;0.62;0.00;0.00;0.62;2.00;1.70;;;23.50;41.60;;;;;;2262680;61;20387;-58
2022/07/07 07:31:09;0.00;0.00;0.62;0.00;0.00;0.62;2.07;1.87;;;23.50;41.70;;;;;;2265191;61;20449;-58
2022/07/07 07:33:53;0.00;0.00;0.62;0.00;0.00;0.62;2.70;2.17;;;23.50;41.80;;;;;;2264229;61;20402;-60
2022/07/07 07:36:39;0.00;0.00;0.62;0.00;0.00;0.62;2.47;1.90;;;23.60;42.10;;;;;;2263395;61;20464;-62
2022/07/07 07:39:24;0.00;0.00;0.62;0.00;0.00;0.62;2.30;1.70;;;23.60;42.20;;;;;;2267656;61;20428;-62
2022/07/07 07:42:09;0.00;0.00;0.62;0.00;0.00;0.62;2.63;1.63;;;23.50;42.10;;;;;;2266575;61;20396;-61
2022/07/07 07:45:10;0.00;0.00;0.62;0.00;0.00;0.62;2.30;1.77;;;23.60;42.30;;;;;;2263869;61;20356;-60
2022/07/07 07:47:56;0.00;0.00;0.62;0.00;0.00;0.62;2.00;1.77;;;23.60;42.50;;;;;;2264614;61;20403;-65
2022/07/07 07:50:42;0.00;0.00;0.62;0.00;0.00;0.62;2.70;1.60;;;23.50;42.50;;;;;;2262725;61;20446;-62
2022/07/07 07:53:26;0.00;0.00;0.62;0.00;0.00;0.62;2.43;1.70;;;23.60;42.70;;;;;;2263823;61;20892;-59
2022/07/07 07:56:11;0.00;0.00;0.62;0.00;0.00;0.62;3.80;2.07;;;23.60;42.90;;;;;;2263896;61;20438;-62
2022/07/07 07:58:57;0.00;0.00;0.62;0.00;0.00;0.62;1.90;1.40;;;23.60;43.00;;;;;;2263595;61;20360;-63
2022/07/07 08:01:43;0.00;0.00;0.62;0.00;0.00;0.62;1.77;1.67;;;23.50;43.00;;;;;;2265408;61;20462;-62
2022/07/07 08:04:28;0.00;0.00;0.62;0.00;0.00;0.62;2.20;1.47;;;23.50;43.10;;;;;;2262655;61;20372;-62
2022/07/07 08:07:14;0.00;0.00;0.62;0.00;0.00;0.62;2.00;1.57;;;23.60;43.20;;;;;;2267377;61;20356;-61
2022/07/07 08:10:00;0.00;0.00;0.62;0.00;0.00;0.62;1.60;1.20;;;23.60;43.10;;;;;;2267470;61;20416;-59
2022/07/07 08:12:47;0.00;0.00;0.62;0.00;0.00;0.62;2.30;1.57;;;23.50;43.00;;;;;;2264047;61;20418;-62
2022/07/07 08:15:33;0.00;0.00;0.62;0.00;0.00;0.62;3.00;1.37;;;23.60;43.20;;;;;;2262698;61;20383;-61
2022/07/07 08:18:19;0.00;0.00;0.62;0.00;0.00;0.62;1.97;1.50;;;23.60;43.20;;;;;;2266105;61;20441;-60
2022/07/07 08:21:05;0.00;0.00;0.62;0.00;0.00;0.62;3.20;1.53;;;23.60;43.30;;;;;;2263449;61;20422;-60
2022/07/07 08:23:50;0.00;0.00;0.62;0.00;0.00;0.62;2.10;1.37;;;23.60;43.20;;;;;;2261799;61;20364;-59
2022/07/07 08:26:35;0.00;0.00;0.62;0.00;0.00;0.62;2.73;1.40;;;23.60;43.30;;;;;;2265499;61;20983;-61
2022/07/07 08:29:20;0.00;0.00;0.62;0.00;0.00;0.62;2.13;1.13;;;23.60;43.40;;;;;;2501898;53;20352;-60
2022/07/07 08:32:07;0.00;0.00;0.62;0.00;0.00;0.62;3.57;1.10;;;23.60;43.40;;;;;;2264919;61;20399;-63
2022/07/07 08:34:54;0.00;0.00;0.62;0.00;0.00;0.62;1.70;1.00;;;23.70;43.40;;;;;;2262673;61;20384;-60
2022/07/07 08:37:41;0.00;0.00;0.62;0.00;0.00;0.62;1.60;1.07;;;23.70;43.40;;;;;;2265789;61;20551;-62
2022/07/07 08:40:26;0.00;0.00;0.62;0.00;0.00;0.62;1.50;1.07;;;23.70;43.40;;;;;;2270554;61;20380;-62
2022/07/07 08:43:12;0.00;0.00;0.62;0.00;0.00;0.62;1.60;0.97;;;23.70;43.40;;;;;;2264235;61;20368;-60
2022/07/07 08:45:57;0.00;0.00;0.62;0.00;0.00;0.62;2.13;1.00;;;23.70;43.30;;;;;;2269375;61;20356;-62
2022/07/07 08:48:42;0.00;0.00;0.62;0.00;0.00;0.62;4.90;1.00;;;23.80;43.30;;;;;;2266944;61;20360;-61
2022/07/07 08:51:28;0.00;0.00;0.62;0.00;0.00;0.62;1.40;0.90;;;23.80;43.20;;;;;;2264201;61;20399;-57
2022/07/07 08:54:16;0.00;0.00;0.62;0.00;0.00;0.62;1.43;0.80;;;23.80;43.10;;;;;;2260448;61;20368;-59
2022/07/07 08:57:01;0.00;0.00;0.62;0.00;0.00;0.62;3.07;0.93;;;23.80;43.10;;;;;;2264411;61;20367;-63
2022/07/07 08:59:45;0.00;0.00;0.62;0.00;0.00;0.62;1.57;0.80;;;23.80;43.10;;;;;;2266712;61;20454;-59
2022/07/07 09:02:31;0.00;0.00;0.62;0.00;0.00;0.62;2.00;1.10;;;23.90;43.20;;;;;;2268679;61;20387;-59
2022/07/07 09:05:16;0.00;0.00;0.62;0.00;0.00;0.62;1.50;0.90;;;23.80;43.10;;;;;;2268077;61;20379;-60
2022/07/07 09:08:16;0.00;0.00;0.62;0.00;0.00;0.62;2.30;1.43;;;23.90;43.20;;;;;;2264668;61;20372;-61
2022/07/07 09:11:05;0.00;0.00;0.62;0.00;0.00;0.62;1.50;1.00;;;23.90;43.20;;;;;;2268720;61;20379;-56
2022/07/07 09:13:50;0.00;0.00;0.62;0.00;0.00;0.62;2.20;1.23;;;23.90;43.30;;;;;;2266171;61;20913;-61
2022/07/07 09:16:38;0.00;0.00;0.62;0.00;0.00;0.62;1.73;1.23;;;23.90;43.40;;;;;;2267992;61;20560;-61
2022/07/07 09:19:23;0.00;0.00;0.62;0.00;0.00;0.62;1.80;1.10;;;23.90;43.40;;;;;;2264022;61;20365;-61
2022/07/07 09:22:08;0.00;0.00;0.62;0.00;0.00;0.62;1.70;1.17;;;24.00;43.40;;;;;;2263872;61;20433;-62
2022/07/07 09:24:56;0.00;0.00;0.62;0.00;0.00;0.62;1.57;1.10;;;24.00;43.50;;;;;;2263213;61;20825;-59
2022/07/07 09:27:55;0.00;0.00;0.62;0.00;0.00;0.62;1.53;1.00;;;24.00;43.40;;;;;;2262506;61;20377;-60
2022/07/07 09:30:43;0.00;0.00;0.62;0.00;0.00;0.62;1.30;1.00;;;24.00;43.40;;;;;;2263439;61;20412;-60
2022/07/07 09:33:29;0.00;0.00;0.62;0.00;0.00;0.62;1.43;1.00;;;24.00;43.30;;;;;;2262111;61;20402;-60
2022/07/07 09:39:23;0.00;0.00;0.62;0.00;0.00;0.62;1.43;1.00;;;24.00;43.20;;;;;;2265058;61;20406;-58
2022/07/07 09:42:24;0.00;0.00;0.62;0.00;0.00;0.62;2.80;1.83;;;24.10;43.20;;;;;;2263180;61;20383;-58
2022/07/07 09:45:12;0.00;0.00;0.62;0.00;0.00;0.62;2.00;1.60;;;24.10;43.20;;;;;;2263687;61;20395;-62
2022/07/07 09:48:07;0.00;0.00;0.62;0.00;0.00;0.62;3.30;2.00;;;24.10;43.10;;;;;;2262658;61;20355;-63
2022/07/07 09:51:13;0.00;0.00;0.62;0.00;0.00;0.62;2.00;1.67;;;24.10;43.00;;;;;;2261302;61;20935;-60
2022/07/07 09:54:05;0.00;0.00;0.62;0.00;0.00;0.62;1.97;1.50;;;24.10;43.00;;;;;;2263745;61;20899;-60
2022/07/07 09:56:50;0.00;0.00;0.62;0.00;0.00;0.62;2.10;1.40;;;24.10;43.00;;;;;;2264696;61;20529;-61
2022/07/07 09:59:36;0.00;0.00;0.62;0.00;0.00;0.62;1.83;1.20;;;24.10;43.00;;;;;;2264751;61;20355;-60
2022/07/07 10:02:24;0.00;0.00;0.62;0.00;0.00;0.62;1.80;1.10;;;24.10;43.00;;;;;;2265739;61;20368;-64
2022/07/07 10:05:09;0.00;0.00;0.62;0.00;0.00;0.62;1.97;1.10;;;24.20;43.00;;;;;;2263770;61;20379;-59
2022/07/07 10:07:55;0.00;0.00;0.62;0.00;0.00;0.62;1.67;0.90;;;24.10;42.90;;;;;;2263987;61;20360;-58
2022/07/07 10:10:42;0.00;0.00;0.62;0.00;0.00;0.62;1.67;1.27;;;24.20;43.00;;;;;;2262900;61;20384;-60
2022/07/07 10:13:31;0.00;0.00;0.62;0.00;0.00;0.62;2.07;1.10;;;24.20;43.00;;;;;;2264193;61;20363;-61
2022/07/07 10:16:17;0.00;0.00;0.62;0.00;0.00;0.62;1.50;0.93;;;24.20;43.00;;;;;;2264377;61;20797;-61
2022/07/07 10:19:03;0.00;0.00;0.62;0.00;0.00;0.62;1.60;1.10;;;24.20;43.10;;;;;;2264662;61;20828;-63
2022/07/07 10:21:50;0.00;0.00;0.62;0.00;0.00;0.62;1.50;1.00;;;24.20;43.30;;;;;;2264080;61;20380;-62
2022/07/07 10:24:35;0.00;0.00;0.62;0.00;0.00;0.62;1.57;1.13;;;24.20;43.30;;;;;;2265944;61;20363;-61
2022/07/07 10:27:23;0.00;0.00;0.62;0.00;0.00;0.62;1.30;0.87;;;24.20;43.20;;;;;;2263635;61;20369;-59
2022/07/07 10:30:09;0.00;0.00;0.62;0.00;0.00;0.62;1.87;1.17;;;24.20;43.20;;;;;;2260847;61;20435;-59
2022/07/07 10:32:56;0.00;0.00;0.62;0.00;0.00;0.62;1.40;1.00;;;24.20;43.30;;;;;;2259508;61;20361;-61
2022/07/07 10:35:43;0.00;0.00;0.62;0.00;0.00;0.62;1.97;0.90;;;24.20;43.40;;;;;;2260595;61;20411;-61
2022/07/07 10:38:29;0.00;0.00;0.62;0.00;0.00;0.62;1.50;1.10;;;24.30;43.50;;;;;;2260380;61;20442;-59
2022/07/07 10:41:21;0.00;0.00;0.62;0.00;0.00;0.62;1.87;1.37;;;24.30;44.10;;;;;;2259397;61;20392;-59
2022/07/07 10:44:10;0.00;0.00;0.62;0.00;0.00;0.62;2.20;1.33;;;24.30;43.40;;;;;;2260682;61;20437;-60
2022/07/07 10:46:59;0.00;0.00;0.62;0.00;0.00;0.62;1.47;0.90;;;24.30;43.30;;;;;;2259904;61;20357;-61
2022/07/07 10:49:49;0.00;0.00;0.62;0.00;0.00;0.62;1.90;1.20;;;24.30;43.30;;;;;;2260100;61;20358;-61
2022/07/07 10:52:41;0.00;0.00;0.62;0.00;0.00;0.62;1.90;1.03;;;24.30;43.20;;;;;;2260036;61;20450;-60
2022/07/07 10:55:53;0.00;0.00;0.62;0.00;0.00;0.62;2.30;1.20;;;24.30;43.20;;;;;;2258893;61;20854;-62
2022/07/07 10:58:59;0.00;0.00;0.62;0.00;0.00;0.62;3.50;1.50;;;24.40;43.20;;;;;;2261445;61;20357;-60